sensor_id;sensor_type;location;lat;lon;timestamp;P1;durP1;ratioP1;P2;durP2;ratioP2
18042;SDS011;9146;48.074;11.968;2023-06-10T00:00:27;6.53;;;5.87;;
18042;SDS011;9146;48.074;11.968;2023-06-10T00:02:57;7.23;;;6.60;;
18042;SDS011;9146;48.074;11.968;2023-06-10T00:05:24;7.80;;;6.43;;
18042;SDS011;9146;48.074;11.968;2023-06-10T00:07:54;7.93;;;7.17;;
18042;SDS011;9146;48.074;11.968;2023-06-10T00:10:22;7.30;;;6.30;;
18042;SDS011;9146;48.074;11.968;2023-06-10T00:12:49;6.90;;;6.20;;
18042;SDS011;9146;48.074;11.968;2023-06-10T00:15:16;7.73;;;6.80;;
18042;SDS011;9146;48.074;11.968;2023-06-10T00:17:43;7.13;;;6.43;;
18042;SDS011;9146;48.074;11.968;2023-06-10T00:20:13;8.77;;;6.50;;
18042;SDS011;9146;48.074;11.968;2023-06-10T00:22:40;8.07;;;7.37;;
18042;SDS011;9146;48.074;11.968;2023-06-10T00:25:10;8.07;;;7.27;;
18042;SDS011;9146;48.074;11.968;2023-06-10T00:27:37;8.50;;;7.60;;
18042;SDS011;9146;48.074;11.968;2023-06-10T00:30:06;7.40;;;6.60;;
18042;SDS011;9146;48.074;11.968;2023-06-10T00:32:34;8.93;;;8.07;;
18042;SDS011;9146;48.074;11.968;2023-06-10T00:35:01;8.47;;;7.67;;
18042;SDS011;9146;48.074;11.968;2023-06-10T00:37:29;7.67;;;6.97;;
18042;SDS011;9146;48.074;11.968;2023-06-10T00:39:57;8.93;;;7.83;;
18042;SDS011;9146;48.074;11.968;2023-06-10T00:42:24;8.00;;;7.20;;
18042;SDS011;9146;48.074;11.968;2023-06-10T00:44:52;9.47;;;7.07;;
18042;SDS011;9146;48.074;11.968;2023-06-10T00:47:20;8.00;;;7.20;;
18042;SDS011;9146;48.074;11.968;2023-06-10T00:49:47;8.10;;;7.17;;
18042;SDS011;9146;48.074;11.968;2023-06-10T00:52:15;9.17;;;8.13;;
18042;SDS011;9146;48.074;11.968;2023-06-10T00:54:46;9.83;;;7.57;;
18042;SDS011;9146;48.074;11.968;2023-06-10T00:57:13;8.37;;;7.60;;
18042;SDS011;9146;48.074;11.968;2023-06-10T00:59:40;8.27;;;7.40;;
18042;SDS011;9146;48.074;11.968;2023-06-10T01:02:07;8.80;;;7.17;;
18042;SDS011;9146;48.074;11.968;2023-06-10T01:04:35;8.00;;;7.30;;
18042;SDS011;9146;48.074;11.968;2023-06-10T01:07:05;7.90;;;7.10;;
18042;SDS011;9146;48.074;11.968;2023-06-10T01:09:47;8.57;;;7.70;;
18042;SDS011;9146;48.074;11.968;2023-06-10T01:12:20;8.50;;;7.73;;
18042;SDS011;9146;48.074;11.968;2023-06-10T01:14:55;9.63;;;8.20;;
18042;SDS011;9146;48.074;11.968;2023-06-10T01:17:22;9.73;;;8.20;;
18042;SDS011;9146;48.074;11.968;2023-06-10T01:19:55;8.50;;;7.70;;
18042;SDS011;9146;48.074;11.968;2023-06-10T01:22:24;8.00;;;7.30;;
18042;SDS011;9146;48.074;11.968;2023-06-10T01:24:53;7.80;;;7.10;;
18042;SDS011;9146;48.074;11.968;2023-06-10T01:27:23;8.70;;;7.80;;
18042;SDS011;9146;48.074;11.968;2023-06-10T01:29:54;8.13;;;7.40;;
18042;SDS011;9146;48.074;11.968;2023-06-10T01:32:29;8.10;;;7.30;;
18042;SDS011;9146;48.074;11.968;2023-06-10T01:35:01;8.63;;;7.73;;
18042;SDS011;9146;48.074;11.968;2023-06-10T01:37:31;6.53;;;5.90;;
18042;SDS011;9146;48.074;11.968;2023-06-10T01:40:01;8.57;;;7.77;;
18042;SDS011;9146;48.074;11.968;2023-06-10T01:42:31;8.43;;;7.53;;
18042;SDS011;9146;48.074;11.968;2023-06-10T01:44:58;7.67;;;6.50;;
18042;SDS011;9146;48.074;11.968;2023-06-10T01:47:25;8.30;;;7.40;;
18042;SDS011;9146;48.074;11.968;2023-06-10T01:49:52;7.95;;;7.25;;
18042;SDS011;9146;48.074;11.968;2023-06-10T01:52:19;8.80;;;7.90;;
18042;SDS011;9146;48.074;11.968;2023-06-10T01:54:47;8.20;;;7.40;;
18042;SDS011;9146;48.074;11.968;2023-06-10T01:57:14;8.60;;;7.77;;
18042;SDS011;9146;48.074;11.968;2023-06-10T01:59:41;9.90;;;8.73;;
18042;SDS011;9146;48.074;11.968;2023-06-10T02:02:09;8.97;;;8.07;;
18042;SDS011;9146;48.074;11.968;2023-06-10T02:04:36;8.43;;;7.50;;
18042;SDS011;9146;48.074;11.968;2023-06-10T02:07:03;9.33;;;8.37;;
18042;SDS011;9146;48.074;11.968;2023-06-10T02:09:31;8.53;;;7.70;;
18042;SDS011;9146;48.074;11.968;2023-06-10T02:12:01;9.50;;;8.60;;
18042;SDS011;9146;48.074;11.968;2023-06-10T02:14:29;10.57;;;9.47;;
18042;SDS011;9146;48.074;11.968;2023-06-10T02:17:04;10.10;;;9.07;;
18042;SDS011;9146;48.074;11.968;2023-06-10T02:19:45;9.43;;;8.53;;
18042;SDS011;9146;48.074;11.968;2023-06-10T02:22:18;8.50;;;7.70;;
18042;SDS011;9146;48.074;11.968;2023-06-10T02:24:46;9.27;;;8.37;;
18042;SDS011;9146;48.074;11.968;2023-06-10T02:27:15;9.40;;;7.83;;
18042;SDS011;9146;48.074;11.968;2023-06-10T02:29:42;8.03;;;7.23;;
18042;SDS011;9146;48.074;11.968;2023-06-10T02:32:10;9.80;;;8.80;;
18042;SDS011;9146;48.074;11.968;2023-06-10T02:34:36;7.90;;;7.20;;
18042;SDS011;9146;48.074;11.968;2023-06-10T02:37:04;9.80;;;8.80;;
18042;SDS011;9146;48.074;11.968;2023-06-10T02:39:30;9.07;;;8.17;;
18042;SDS011;9146;48.074;11.968;2023-06-10T02:41:57;9.50;;;8.53;;
18042;SDS011;9146;48.074;11.968;2023-06-10T02:44:26;8.77;;;7.87;;
18042;SDS011;9146;48.074;11.968;2023-06-10T02:46:52;10.23;;;9.13;;
18042;SDS011;9146;48.074;11.968;2023-06-10T02:49:19;9.00;;;8.20;;
18042;SDS011;9146;48.074;11.968;2023-06-10T02:51:46;9.00;;;8.10;;
18042;SDS011;9146;48.074;11.968;2023-06-10T02:54:13;10.00;;;9.00;;
18042;SDS011;9146;48.074;11.968;2023-06-10T02:56:41;10.37;;;9.27;;
18042;SDS011;9146;48.074;11.968;2023-06-10T02:59:08;9.90;;;8.43;;
18042;SDS011;9146;48.074;11.968;2023-06-10T03:01:37;10.63;;;9.57;;
18042;SDS011;9146;48.074;11.968;2023-06-10T03:04:04;10.80;;;9.70;;
18042;SDS011;9146;48.074;11.968;2023-06-10T03:06:31;9.57;;;8.67;;
18042;SDS011;9146;48.074;11.968;2023-06-10T03:09:00;13.43;;;12.13;;
18042;SDS011;9146;48.074;11.968;2023-06-10T03:11:29;13.40;;;12.00;;
18042;SDS011;9146;48.074;11.968;2023-06-10T03:13:56;13.80;;;12.40;;
18042;SDS011;9146;48.074;11.968;2023-06-10T03:16:23;13.00;;;11.70;;
18042;SDS011;9146;48.074;11.968;2023-06-10T03:18:53;12.33;;;11.00;;
18042;SDS011;9146;48.074;11.968;2023-06-10T03:21:20;13.87;;;12.37;;
18042;SDS011;9146;48.074;11.968;2023-06-10T03:23:47;11.43;;;10.10;;
18042;SDS011;9146;48.074;11.968;2023-06-10T03:26:14;11.13;;;10.03;;
18042;SDS011;9146;48.074;11.968;2023-06-10T03:28:41;11.27;;;10.03;;
18042;SDS011;9146;48.074;11.968;2023-06-10T03:31:08;11.43;;;10.27;;
18042;SDS011;9146;48.074;11.968;2023-06-10T03:33:35;11.53;;;10.43;;
18042;SDS011;9146;48.074;11.968;2023-06-10T03:36:04;11.30;;;10.10;;
18042;SDS011;9146;48.074;11.968;2023-06-10T03:38:31;11.77;;;10.67;;
18042;SDS011;9146;48.074;11.968;2023-06-10T03:40:58;11.47;;;10.27;;
18042;SDS011;9146;48.074;11.968;2023-06-10T03:43:25;11.53;;;10.33;;
18042;SDS011;9146;48.074;11.968;2023-06-10T03:45:52;11.50;;;10.30;;
18042;SDS011;9146;48.074;11.968;2023-06-10T03:48:19;15.77;;;12.60;;
18042;SDS011;9146;48.074;11.968;2023-06-10T03:50:46;14.90;;;12.33;;
18042;SDS011;9146;48.074;11.968;2023-06-10T03:53:17;15.70;;;12.97;;
18042;SDS011;9146;48.074;11.968;2023-06-10T03:55:44;16.50;;;13.03;;
18042;SDS011;9146;48.074;11.968;2023-06-10T03:58:11;15.67;;;13.33;;
18042;SDS011;9146;48.074;11.968;2023-06-10T04:00:39;15.47;;;13.87;;
18042;SDS011;9146;48.074;11.968;2023-06-10T04:03:07;14.17;;;11.80;;
18042;SDS011;9146;48.074;11.968;2023-06-10T04:05:39;16.70;;;13.93;;
18042;SDS011;9146;48.074;11.968;2023-06-10T04:08:07;15.10;;;13.50;;
18042;SDS011;9146;48.074;11.968;2023-06-10T04:10:36;14.20;;;12.13;;
18042;SDS011;9146;48.074;11.968;2023-06-10T04:13:02;16.80;;;13.80;;
18042;SDS011;9146;48.074;11.968;2023-06-10T04:15:29;15.40;;;13.20;;
18042;SDS011;9146;48.074;11.968;2023-06-10T04:17:58;15.23;;;13.70;;
18042;SDS011;9146;48.074;11.968;2023-06-10T04:20:26;16.33;;;13.60;;
18042;SDS011;9146;48.074;11.968;2023-06-10T04:22:53;14.50;;;12.67;;
18042;SDS011;9146;48.074;11.968;2023-06-10T04:25:20;14.60;;;12.80;;
18042;SDS011;9146;48.074;11.968;2023-06-10T04:27:48;14.03;;;12.70;;
18042;SDS011;9146;48.074;11.968;2023-06-10T04:30:15;13.87;;;12.47;;
18042;SDS011;9146;48.074;11.968;2023-06-10T04:32:42;14.80;;;13.10;;
18042;SDS011;9146;48.074;11.968;2023-06-10T04:35:11;14.17;;;12.63;;
18042;SDS011;9146;48.074;11.968;2023-06-10T04:37:38;13.33;;;11.93;;
18042;SDS011;9146;48.074;11.968;2023-06-10T04:40:07;19.50;;;11.30;;
18042;SDS011;9146;48.074;11.968;2023-06-10T04:42:35;11.90;;;10.70;;
18042;SDS011;9146;48.074;11.968;2023-06-10T04:45:04;12.93;;;11.63;;
18042;SDS011;9146;48.074;11.968;2023-06-10T04:47:31;14.33;;;12.83;;
18042;SDS011;9146;48.074;11.968;2023-06-10T04:49:59;15.07;;;11.90;;
18042;SDS011;9146;48.074;11.968;2023-06-10T04:52:26;13.23;;;11.67;;
18042;SDS011;9146;48.074;11.968;2023-06-10T04:54:53;12.97;;;11.47;;
18042;SDS011;9146;48.074;11.968;2023-06-10T04:57:20;12.87;;;11.57;;
18042;SDS011;9146;48.074;11.968;2023-06-10T04:59:47;12.77;;;11.47;;
18042;SDS011;9146;48.074;11.968;2023-06-10T05:02:15;14.30;;;12.80;;
18042;SDS011;9146;48.074;11.968;2023-06-10T05:04:42;14.80;;;12.87;;
18042;SDS011;9146;48.074;11.968;2023-06-10T05:07:09;14.80;;;12.33;;
18042;SDS011;9146;48.074;11.968;2023-06-10T05:09:36;13.60;;;11.20;;
18042;SDS011;9146;48.074;11.968;2023-06-10T05:12:03;15.70;;;12.50;;
18042;SDS011;9146;48.074;11.968;2023-06-10T05:14:31;15.70;;;12.37;;
18042;SDS011;9146;48.074;11.968;2023-06-10T05:16:58;16.23;;;11.50;;
18042;SDS011;9146;48.074;11.968;2023-06-10T05:19:26;13.30;;;10.70;;
18042;SDS011;9146;48.074;11.968;2023-06-10T05:21:53;18.80;;;11.53;;
18042;SDS011;9146;48.074;11.968;2023-06-10T05:24:21;12.00;;;10.73;;
18042;SDS011;9146;48.074;11.968;2023-06-10T05:26:48;16.37;;;12.03;;
18042;SDS011;9146;48.074;11.968;2023-06-10T05:29:15;17.30;;;11.27;;
18042;SDS011;9146;48.074;11.968;2023-06-10T05:31:42;13.77;;;11.73;;
18042;SDS011;9146;48.074;11.968;2023-06-10T05:34:09;12.63;;;11.33;;
18042;SDS011;9146;48.074;11.968;2023-06-10T05:36:37;11.07;;;9.77;;
18042;SDS011;9146;48.074;11.968;2023-06-10T05:39:04;12.37;;;11.17;;
18042;SDS011;9146;48.074;11.968;2023-06-10T05:41:31;11.20;;;10.10;;
18042;SDS011;9146;48.074;11.968;2023-06-10T05:43:58;12.93;;;9.57;;
18042;SDS011;9146;48.074;11.968;2023-06-10T05:46:24;11.83;;;10.47;;
18042;SDS011;9146;48.074;11.968;2023-06-10T05:48:51;11.97;;;10.40;;
18042;SDS011;9146;48.074;11.968;2023-06-10T05:51:18;10.07;;;8.90;;
18042;SDS011;9146;48.074;11.968;2023-06-10T05:53:46;14.37;;;9.80;;
18042;SDS011;9146;48.074;11.968;2023-06-10T05:56:14;9.20;;;8.10;;
18042;SDS011;9146;48.074;11.968;2023-06-10T05:58:41;10.20;;;9.20;;
18042;SDS011;9146;48.074;11.968;2023-06-10T06:01:07;9.67;;;8.70;;
18042;SDS011;9146;48.074;11.968;2023-06-10T06:03:34;8.77;;;7.90;;
18042;SDS011;9146;48.074;11.968;2023-06-10T06:06:02;11.67;;;9.60;;
18042;SDS011;9146;48.074;11.968;2023-06-10T06:08:29;10.03;;;9.03;;
18042;SDS011;9146;48.074;11.968;2023-06-10T06:10:57;10.13;;;9.10;;
18042;SDS011;9146;48.074;11.968;2023-06-10T06:13:24;14.00;;;10.20;;
18042;SDS011;9146;48.074;11.968;2023-06-10T06:15:51;9.33;;;8.30;;
18042;SDS011;9146;48.074;11.968;2023-06-10T06:18:17;9.53;;;8.37;;
18042;SDS011;9146;48.074;11.968;2023-06-10T06:20:44;8.93;;;8.03;;
18042;SDS011;9146;48.074;11.968;2023-06-10T06:23:11;9.03;;;8.13;;
18042;SDS011;9146;48.074;11.968;2023-06-10T06:25:38;8.80;;;7.90;;
18042;SDS011;9146;48.074;11.968;2023-06-10T06:28:07;8.73;;;7.17;;
18042;SDS011;9146;48.074;11.968;2023-06-10T06:30:34;8.83;;;8.03;;
18042;SDS011;9146;48.074;11.968;2023-06-10T06:33:01;8.70;;;7.90;;
18042;SDS011;9146;48.074;11.968;2023-06-10T06:35:30;8.93;;;8.07;;
18042;SDS011;9146;48.074;11.968;2023-06-10T06:37:57;7.63;;;6.83;;
18042;SDS011;9146;48.074;11.968;2023-06-10T06:40:24;10.43;;;7.63;;
18042;SDS011;9146;48.074;11.968;2023-06-10T06:42:51;7.47;;;6.77;;
18042;SDS011;9146;48.074;11.968;2023-06-10T06:45:21;11.03;;;8.40;;
18042;SDS011;9146;48.074;11.968;2023-06-10T06:47:48;10.20;;;7.63;;
18042;SDS011;9146;48.074;11.968;2023-06-10T06:50:14;7.67;;;6.93;;
18042;SDS011;9146;48.074;11.968;2023-06-10T06:52:42;10.63;;;8.53;;
18042;SDS011;9146;48.074;11.968;2023-06-10T06:55:08;9.30;;;8.10;;
18042;SDS011;9146;48.074;11.968;2023-06-10T06:57:36;8.70;;;7.80;;
18042;SDS011;9146;48.074;11.968;2023-06-10T07:00:03;9.67;;;8.60;;
18042;SDS011;9146;48.074;11.968;2023-06-10T07:02:32;8.87;;;8.00;;
18042;SDS011;9146;48.074;11.968;2023-06-10T07:04:59;10.23;;;8.70;;
18042;SDS011;9146;48.074;11.968;2023-06-10T07:07:26;8.20;;;7.40;;
18042;SDS011;9146;48.074;11.968;2023-06-10T07:09:53;7.77;;;6.97;;
18042;SDS011;9146;48.074;11.968;2023-06-10T07:12:20;10.73;;;6.53;;
18042;SDS011;9146;48.074;11.968;2023-06-10T07:14:49;7.90;;;7.10;;
18042;SDS011;9146;48.074;11.968;2023-06-10T07:17:16;8.33;;;7.53;;
18042;SDS011;9146;48.074;11.968;2023-06-10T07:19:44;8.70;;;7.80;;
18042;SDS011;9146;48.074;11.968;2023-06-10T07:22:12;7.23;;;6.50;;
18042;SDS011;9146;48.074;11.968;2023-06-10T07:24:39;8.63;;;7.67;;
18042;SDS011;9146;48.074;11.968;2023-06-10T07:27:06;7.07;;;6.37;;
18042;SDS011;9146;48.074;11.968;2023-06-10T07:29:33;6.97;;;6.37;;
18042;SDS011;9146;48.074;11.968;2023-06-10T07:32:01;7.50;;;6.13;;
18042;SDS011;9146;48.074;11.968;2023-06-10T07:34:28;10.40;;;7.30;;
18042;SDS011;9146;48.074;11.968;2023-06-10T07:36:57;7.37;;;6.67;;
18042;SDS011;9146;48.074;11.968;2023-06-10T07:39:24;7.20;;;6.50;;
18042;SDS011;9146;48.074;11.968;2023-06-10T07:41:51;6.57;;;5.97;;
18042;SDS011;9146;48.074;11.968;2023-06-10T07:44:19;6.90;;;5.40;;
18042;SDS011;9146;48.074;11.968;2023-06-10T07:46:46;6.23;;;5.70;;
18042;SDS011;9146;48.074;11.968;2023-06-10T07:49:13;6.50;;;5.90;;
18042;SDS011;9146;48.074;11.968;2023-06-10T07:51:40;6.23;;;5.63;;
18042;SDS011;9146;48.074;11.968;2023-06-10T07:54:08;6.23;;;5.70;;
18042;SDS011;9146;48.074;11.968;2023-06-10T07:56:38;7.17;;;5.43;;
18042;SDS011;9146;48.074;11.968;2023-06-10T07:59:05;5.33;;;4.83;;
18042;SDS011;9146;48.074;11.968;2023-06-10T08:01:32;6.10;;;5.50;;
18042;SDS011;9146;48.074;11.968;2023-06-10T08:04:01;5.50;;;5.03;;
18042;SDS011;9146;48.074;11.968;2023-06-10T08:06:27;5.90;;;5.40;;
18042;SDS011;9146;48.074;11.968;2023-06-10T08:08:54;5.60;;;5.07;;
18042;SDS011;9146;48.074;11.968;2023-06-10T08:11:23;6.20;;;5.60;;
18042;SDS011;9146;48.074;11.968;2023-06-10T08:13:52;7.07;;;6.47;;
18042;SDS011;9146;48.074;11.968;2023-06-10T08:16:19;6.10;;;5.60;;
18042;SDS011;9146;48.074;11.968;2023-06-10T08:18:46;5.90;;;5.33;;
18042;SDS011;9146;48.074;11.968;2023-06-10T08:21:15;6.80;;;5.07;;
18042;SDS011;9146;48.074;11.968;2023-06-10T08:23:42;7.07;;;4.90;;
18042;SDS011;9146;48.074;11.968;2023-06-10T08:26:09;5.77;;;5.37;;
18042;SDS011;9146;48.074;11.968;2023-06-10T08:28:37;5.13;;;4.63;;
18042;SDS011;9146;48.074;11.968;2023-06-10T08:31:04;5.13;;;4.50;;
18042;SDS011;9146;48.074;11.968;2023-06-10T08:33:31;5.10;;;4.67;;
18042;SDS011;9146;48.074;11.968;2023-06-10T08:35:58;6.27;;;5.77;;
18042;SDS011;9146;48.074;11.968;2023-06-10T08:38:25;6.70;;;5.90;;
18042;SDS011;9146;48.074;11.968;2023-06-10T08:40:52;5.97;;;5.13;;
18042;SDS011;9146;48.074;11.968;2023-06-10T08:43:27;5.37;;;4.87;;
18042;SDS011;9146;48.074;11.968;2023-06-10T08:46:00;12.60;;;4.77;;
18042;SDS011;9146;48.074;11.968;2023-06-10T08:48:29;5.90;;;5.40;;
18042;SDS011;9146;48.074;11.968;2023-06-10T08:50:56;5.10;;;4.70;;
18042;SDS011;9146;48.074;11.968;2023-06-10T08:53:23;4.90;;;4.50;;
18042;SDS011;9146;48.074;11.968;2023-06-10T08:55:52;4.10;;;3.80;;
18042;SDS011;9146;48.074;11.968;2023-06-10T08:58:23;5.23;;;4.60;;
18042;SDS011;9146;48.074;11.968;2023-06-10T09:00:50;3.83;;;3.53;;
18042;SDS011;9146;48.074;11.968;2023-06-10T09:03:19;4.00;;;3.70;;
18042;SDS011;9146;48.074;11.968;2023-06-10T09:05:45;3.73;;;3.43;;
18042;SDS011;9146;48.074;11.968;2023-06-10T09:08:13;4.20;;;3.77;;
18042;SDS011;9146;48.074;11.968;2023-06-10T09:10:41;3.40;;;3.20;;
18042;SDS011;9146;48.074;11.968;2023-06-10T09:13:08;6.20;;;4.23;;
18042;SDS011;9146;48.074;11.968;2023-06-10T09:15:35;4.13;;;3.83;;
18042;SDS011;9146;48.074;11.968;2023-06-10T09:18:02;3.93;;;3.63;;
18042;SDS011;9146;48.074;11.968;2023-06-10T09:20:31;4.03;;;3.67;;
18042;SDS011;9146;48.074;11.968;2023-06-10T09:22:59;5.57;;;3.87;;
18042;SDS011;9146;48.074;11.968;2023-06-10T09:25:34;4.77;;;4.37;;
18042;SDS011;9146;48.074;11.968;2023-06-10T09:28:02;3.70;;;3.40;;
18042;SDS011;9146;48.074;11.968;2023-06-10T09:30:30;4.17;;;3.87;;
18042;SDS011;9146;48.074;11.968;2023-06-10T09:33:00;4.93;;;4.33;;
18042;SDS011;9146;48.074;11.968;2023-06-10T09:35:28;4.30;;;3.90;;
18042;SDS011;9146;48.074;11.968;2023-06-10T09:37:58;4.30;;;3.97;;
18042;SDS011;9146;48.074;11.968;2023-06-10T09:40:27;4.87;;;4.37;;
18042;SDS011;9146;48.074;11.968;2023-06-10T09:42:54;4.50;;;4.10;;
18042;SDS011;9146;48.074;11.968;2023-06-10T09:45:23;3.87;;;3.57;;
18042;SDS011;9146;48.074;11.968;2023-06-10T09:47:55;6.13;;;2.50;;
18042;SDS011;9146;48.074;11.968;2023-06-10T09:50:22;4.20;;;3.90;;
18042;SDS011;9146;48.074;11.968;2023-06-10T09:52:50;3.43;;;3.17;;
18042;SDS011;9146;48.074;11.968;2023-06-10T09:55:18;2.80;;;2.60;;
18042;SDS011;9146;48.074;11.968;2023-06-10T09:57:46;2.93;;;2.73;;
18042;SDS011;9146;48.074;11.968;2023-06-10T10:00:16;3.50;;;3.20;;
18042;SDS011;9146;48.074;11.968;2023-06-10T10:02:44;2.50;;;2.40;;
18042;SDS011;9146;48.074;11.968;2023-06-10T10:05:13;3.97;;;2.77;;
18042;SDS011;9146;48.074;11.968;2023-06-10T10:07:41;3.40;;;3.17;;
18042;SDS011;9146;48.074;11.968;2023-06-10T10:10:09;4.40;;;4.00;;
18042;SDS011;9146;48.074;11.968;2023-06-10T10:12:39;4.40;;;4.00;;
18042;SDS011;9146;48.074;11.968;2023-06-10T10:15:07;4.60;;;4.00;;
18042;SDS011;9146;48.074;11.968;2023-06-10T10:17:35;4.57;;;4.17;;
18042;SDS011;9146;48.074;11.968;2023-06-10T10:20:06;4.47;;;4.07;;
18042;SDS011;9146;48.074;11.968;2023-06-10T10:22:35;4.77;;;3.83;;
18042;SDS011;9146;48.074;11.968;2023-06-10T10:25:06;5.07;;;4.17;;
18042;SDS011;9146;48.074;11.968;2023-06-10T10:27:42;5.40;;;4.07;;
18042;SDS011;9146;48.074;11.968;2023-06-10T10:30:11;4.00;;;3.70;;
18042;SDS011;9146;48.074;11.968;2023-06-10T10:32:43;6.00;;;4.50;;
18042;SDS011;9146;48.074;11.968;2023-06-10T10:35:21;4.00;;;3.37;;
18042;SDS011;9146;48.074;11.968;2023-06-10T10:37:50;3.50;;;3.30;;
18042;SDS011;9146;48.074;11.968;2023-06-10T10:40:19;3.73;;;3.40;;
18042;SDS011;9146;48.074;11.968;2023-06-10T10:42:48;3.93;;;3.50;;
18042;SDS011;9146;48.074;11.968;2023-06-10T10:45:16;3.60;;;3.30;;
18042;SDS011;9146;48.074;11.968;2023-06-10T10:47:44;3.40;;;3.20;;
18042;SDS011;9146;48.074;11.968;2023-06-10T10:50:15;3.47;;;3.17;;
18042;SDS011;9146;48.074;11.968;2023-06-10T10:52:48;3.57;;;3.37;;
18042;SDS011;9146;48.074;11.968;2023-06-10T10:55:19;3.20;;;2.90;;
18042;SDS011;9146;48.074;11.968;2023-06-10T10:57:54;3.70;;;3.40;;
18042;SDS011;9146;48.074;11.968;2023-06-10T11:00:29;2.90;;;2.70;;
18042;SDS011;9146;48.074;11.968;2023-06-10T11:02:57;3.73;;;3.43;;
18042;SDS011;9146;48.074;11.968;2023-06-10T11:05:32;3.87;;;3.40;;
18042;SDS011;9146;48.074;11.968;2023-06-10T11:08:03;3.40;;;3.10;;
18042;SDS011;9146;48.074;11.968;2023-06-10T11:10:34;4.37;;;3.47;;
18042;SDS011;9146;48.074;11.968;2023-06-10T11:15:46;4.03;;;3.63;;
18042;SDS011;9146;48.074;11.968;2023-06-10T11:18:18;4.53;;;3.87;;
18042;SDS011;9146;48.074;11.968;2023-06-10T11:20:56;3.47;;;3.23;;
18042;SDS011;9146;48.074;11.968;2023-06-10T11:23:25;3.77;;;3.47;;
18042;SDS011;9146;48.074;11.968;2023-06-10T11:26:14;3.57;;;3.27;;
18042;SDS011;9146;48.074;11.968;2023-06-10T11:29:06;3.17;;;2.97;;
18042;SDS011;9146;48.074;11.968;2023-06-10T11:31:41;3.20;;;2.90;;
18042;SDS011;9146;48.074;11.968;2023-06-10T11:34:12;3.20;;;2.90;;
18042;SDS011;9146;48.074;11.968;2023-06-10T11:36:40;2.97;;;2.77;;
18042;SDS011;9146;48.074;11.968;2023-06-10T11:39:10;3.40;;;3.20;;
18042;SDS011;9146;48.074;11.968;2023-06-10T11:41:38;3.17;;;2.97;;
18042;SDS011;9146;48.074;11.968;2023-06-10T11:44:10;3.13;;;2.93;;
18042;SDS011;9146;48.074;11.968;2023-06-10T11:46:39;3.37;;;3.07;;
18042;SDS011;9146;48.074;11.968;2023-06-10T11:49:07;3.80;;;3.00;;
18042;SDS011;9146;48.074;11.968;2023-06-10T11:51:35;2.60;;;2.40;;
18042;SDS011;9146;48.074;11.968;2023-06-10T11:54:04;3.27;;;2.97;;
18042;SDS011;9146;48.074;11.968;2023-06-10T11:56:31;2.80;;;2.60;;
18042;SDS011;9146;48.074;11.968;2023-06-10T11:58:59;2.70;;;2.50;;
18042;SDS011;9146;48.074;11.968;2023-06-10T12:01:31;6.00;;;3.20;;
18042;SDS011;9146;48.074;11.968;2023-06-10T12:03:59;3.90;;;3.60;;
18042;SDS011;9146;48.074;11.968;2023-06-10T12:06:37;5.53;;;4.10;;
18042;SDS011;9146;48.074;11.968;2023-06-10T12:09:05;4.60;;;4.13;;
18042;SDS011;9146;48.074;11.968;2023-06-10T12:11:33;4.23;;;3.87;;
18042;SDS011;9146;48.074;11.968;2023-06-10T12:14:01;5.80;;;4.13;;
18042;SDS011;9146;48.074;11.968;2023-06-10T12:16:29;4.60;;;4.20;;
18042;SDS011;9146;48.074;11.968;2023-06-10T12:19:01;4.80;;;4.40;;
18042;SDS011;9146;48.074;11.968;2023-06-10T12:21:29;4.30;;;4.00;;
18042;SDS011;9146;48.074;11.968;2023-06-10T12:23:59;11.70;;;5.20;;
18042;SDS011;9146;48.074;11.968;2023-06-10T12:26:40;4.90;;;4.30;;
18042;SDS011;9146;48.074;11.968;2023-06-10T12:29:16;4.13;;;3.73;;
18042;SDS011;9146;48.074;11.968;2023-06-10T12:34:33;5.10;;;4.70;;
18042;SDS011;9146;48.074;11.968;2023-06-10T12:37:02;4.97;;;4.57;;
18042;SDS011;9146;48.074;11.968;2023-06-10T12:39:30;5.60;;;3.90;;
18042;SDS011;9146;48.074;11.968;2023-06-10T12:41:58;4.33;;;3.93;;
18042;SDS011;9146;48.074;11.968;2023-06-10T12:44:29;4.60;;;4.00;;
18042;SDS011;9146;48.074;11.968;2023-06-10T12:46:56;4.07;;;3.77;;
18042;SDS011;9146;48.074;11.968;2023-06-10T12:49:25;4.43;;;4.13;;
18042;SDS011;9146;48.074;11.968;2023-06-10T12:51:52;3.60;;;3.40;;
18042;SDS011;9146;48.074;11.968;2023-06-10T12:54:19;4.07;;;3.77;;
18042;SDS011;9146;48.074;11.968;2023-06-10T12:56:46;4.23;;;3.90;;
18042;SDS011;9146;48.074;11.968;2023-06-10T12:59:13;4.33;;;3.93;;
18042;SDS011;9146;48.074;11.968;2023-06-10T13:01:41;3.90;;;3.60;;
18042;SDS011;9146;48.074;11.968;2023-06-10T13:04:07;4.10;;;3.77;;
18042;SDS011;9146;48.074;11.968;2023-06-10T13:06:36;4.43;;;4.03;;
18042;SDS011;9146;48.074;11.968;2023-06-10T13:09:03;4.23;;;3.93;;
18042;SDS011;9146;48.074;11.968;2023-06-10T13:11:32;4.50;;;4.20;;
18042;SDS011;9146;48.074;11.968;2023-06-10T13:14:00;4.20;;;3.80;;
18042;SDS011;9146;48.074;11.968;2023-06-10T13:16:27;4.63;;;4.23;;
18042;SDS011;9146;48.074;11.968;2023-06-10T13:18:55;4.37;;;3.97;;
18042;SDS011;9146;48.074;11.968;2023-06-10T13:21:22;3.87;;;3.57;;
18042;SDS011;9146;48.074;11.968;2023-06-10T13:23:51;4.00;;;3.70;;
18042;SDS011;9146;48.074;11.968;2023-06-10T13:26:18;4.47;;;4.07;;
18042;SDS011;9146;48.074;11.968;2023-06-10T13:28:45;4.40;;;3.80;;
18042;SDS011;9146;48.074;11.968;2023-06-10T13:31:12;4.00;;;3.70;;
18042;SDS011;9146;48.074;11.968;2023-06-10T13:33:39;4.27;;;3.80;;
18042;SDS011;9146;48.074;11.968;2023-06-10T13:36:08;4.67;;;4.37;;
18042;SDS011;9146;48.074;11.968;2023-06-10T13:38:35;4.10;;;3.80;;
18042;SDS011;9146;48.074;11.968;2023-06-10T13:41:03;4.13;;;3.70;;
18042;SDS011;9146;48.074;11.968;2023-06-10T13:43:31;4.47;;;4.10;;
18042;SDS011;9146;48.074;11.968;2023-06-10T13:45:57;4.73;;;4.33;;
18042;SDS011;9146;48.074;11.968;2023-06-10T13:48:25;3.70;;;3.40;;
18042;SDS011;9146;48.074;11.968;2023-06-10T13:50:52;3.37;;;3.17;;
18042;SDS011;9146;48.074;11.968;2023-06-10T13:53:19;4.10;;;3.70;;
18042;SDS011;9146;48.074;11.968;2023-06-10T13:55:45;4.87;;;3.97;;
18042;SDS011;9146;48.074;11.968;2023-06-10T13:58:14;3.23;;;3.03;;
18042;SDS011;9146;48.074;11.968;2023-06-10T14:00:40;4.83;;;4.03;;
18042;SDS011;9146;48.074;11.968;2023-06-10T14:03:07;3.80;;;3.50;;
18042;SDS011;9146;48.074;11.968;2023-06-10T14:05:34;3.47;;;3.27;;
18042;SDS011;9146;48.074;11.968;2023-06-10T14:08:01;3.83;;;3.43;;
18042;SDS011;9146;48.074;11.968;2023-06-10T14:10:28;4.00;;;3.70;;
18042;SDS011;9146;48.074;11.968;2023-06-10T14:12:55;4.03;;;3.60;;
18042;SDS011;9146;48.074;11.968;2023-06-10T14:15:23;4.03;;;3.63;;
18042;SDS011;9146;48.074;11.968;2023-06-10T14:17:50;3.73;;;3.43;;
18042;SDS011;9146;48.074;11.968;2023-06-10T14:20:17;3.70;;;3.40;;
18042;SDS011;9146;48.074;11.968;2023-06-10T14:22:44;3.80;;;3.60;;
18042;SDS011;9146;48.074;11.968;2023-06-10T14:25:11;3.90;;;3.60;;
18042;SDS011;9146;48.074;11.968;2023-06-10T14:27:38;3.30;;;3.10;;
18042;SDS011;9146;48.074;11.968;2023-06-10T14:30:05;2.77;;;2.57;;
18042;SDS011;9146;48.074;11.968;2023-06-10T14:32:34;3.20;;;3.00;;
18042;SDS011;9146;48.074;11.968;2023-06-10T14:35:01;3.60;;;3.30;;
18042;SDS011;9146;48.074;11.968;2023-06-10T14:37:28;3.80;;;3.30;;
18042;SDS011;9146;48.074;11.968;2023-06-10T14:39:55;3.50;;;3.30;;
18042;SDS011;9146;48.074;11.968;2023-06-10T14:42:22;2.67;;;2.43;;
18042;SDS011;9146;48.074;11.968;2023-06-10T14:44:49;3.13;;;2.93;;
18042;SDS011;9146;48.074;11.968;2023-06-10T14:47:16;2.97;;;2.77;;
18042;SDS011;9146;48.074;11.968;2023-06-10T14:49:45;3.40;;;3.20;;
18042;SDS011;9146;48.074;11.968;2023-06-10T14:52:11;3.67;;;3.37;;
18042;SDS011;9146;48.074;11.968;2023-06-10T14:54:38;4.33;;;4.03;;